Big Bear Station Historical Data
Daily Summary for June 6, 2019 Units:  English    Metric   Both
Next Day »
Daily Weekly Monthly Yearly Custom
  High: Low: Average:
Temperature: 78.4 °F 45.1 °F 60.1 °F
Dew Point: 47.9 °F 35.4 °F 41.1 °F
Humidity: 87% 23% 56%
Wind Speed: 6.8mph 0mph 1.4mph
Wind Gust: -999mph - -
Wind- - SW
Pressure: 23.57 in 23.52 in -
Precipitation: 0 in    
Historical Graphs
 
 
Tabular Data for June 6, 2019
Time Temperature Dew Point Pressure Wind Wind Speed Wind Gust Humidity Rainfall Rate (Hourly)
00:14 51.4 °F 40 °F 23.57 in Calm   -999 mph 65% 0.00 in
00:29 51.1 °F 40.5 °F 23.57 in Calm   -999 mph 67% 0.00 in
00:44 50.5 °F 41.4 °F 23.57 in Calm   -999 mph 71% 0.00 in
01:00 50.2 °F 42.2 °F 23.57 in Calm   -999 mph 74% 0.00 in
01:15 49.8 °F 42.9 °F 23.56 in Calm   -999 mph 77% 0.00 in
01:30 49.6 °F 42.3 °F 23.56 in Calm   -999 mph 76% 0.00 in
01:45 49.5 °F 43.3 °F 23.56 in Calm   -999 mph 79% 0.00 in
02:00 48.7 °F 43.1 °F 23.56 in Calm   -999 mph 81% 0.00 in
02:16 48.6 °F 43.4 °F 23.55 in Calm   -999 mph 82% 0.00 in
02:31 48 °F 42.1 °F 23.55 in Calm   -999 mph 80% 0.00 in
02:46 47.7 °F 42.5 °F 23.55 in Calm   -999 mph 82% 0.00 in
03:01 47.3 °F 42.7 °F 23.55 in Calm   -999 mph 84% 0.00 in
03:17 47.1 °F 41.2 °F 23.54 in Calm   -999 mph 80% 0.00 in
03:32 46.9 °F 41.7 °F 23.54 in Calm   -999 mph 82% 0.00 in
03:47 46.9 °F 42 °F 23.54 in Calm   -999 mph 83% 0.00 in
04:02 46.8 °F 42.5 °F 23.55 in Calm   -999 mph 85% 0.00 in
04:17 46.8 °F 42.5 °F 23.54 in Calm   -999 mph 85% 0.00 in
04:33 46.4 °F 42.4 °F 23.54 in Calm   -999 mph 86% 0.00 in
04:48 46.2 °F 41.6 °F 23.54 in Calm   -999 mph 84% 0.00 in
05:03 45.7 °F 41.1 °F 23.54 in Calm   -999 mph 84% 0.00 in
05:18 45.5 °F 41.6 °F 23.54 in Calm   -999 mph 86% 0.00 in
05:33 45.5 °F 41.6 °F 23.54 in Calm   -999 mph 86% 0.00 in
05:49 45.3 °F 41.4 °F 23.54 in Calm   -999 mph 86% 0.00 in
06:04 45.3 °F 41.7 °F 23.54 in Calm   -999 mph 87% 0.00 in
06:19 45.1 °F 41.2 °F 23.55 in Calm   -999 mph 86% 0.00 in
06:34 45.3 °F 41.7 °F 23.55 in Calm   -999 mph 87% 0.00 in
06:49 45.9 °F 40.4 °F 23.55 in Calm   -999 mph 81% 0.00 in
07:05 46 °F 41.1 °F 23.55 in Calm   -999 mph 83% 0.00 in
07:20 46.9 °F 42 °F 23.55 in Calm   -999 mph 83% 0.00 in
07:35 47.7 °F 42.8 °F 23.55 in Calm   -999 mph 83% 0.00 in
07:50 49.1 °F 43.8 °F 23.55 in Calm   -999 mph 82% 0.00 in
08:06 51.1 °F 45.5 °F 23.55 in Calm   -999 mph 81% 0.00 in
08:21 52.3 °F 46.3 °F 23.56 in Calm   -999 mph 80% 0.00 in
08:36 54.3 °F 46.5 °F 23.56 in Calm   -999 mph 75% 0.00 in
08:51 57.9 °F 45 °F 23.56 in Calm   -999 mph 62% 0.00 in
09:06 60.8 °F 41 °F 23.56 in Calm   -999 mph 48% 0.00 in
09:22 64.8 °F 37.2 °F 23.56 in NNE 5.3 mph -999 mph 36% 0.00 in
09:37 66.6 °F 39.5 °F 23.56 in Calm   -999 mph 37% 0.00 in
09:52 68.2 °F 36.4 °F 23.56 in NW 4.7 mph -999 mph 31% 0.00 in
10:07 69.3 °F 36.5 °F 23.56 in NW 5.8 mph -999 mph 30% 0.00 in
10:22 69.6 °F 35.9 °F 23.56 in West 2.2 mph -999 mph 29% 0.00 in
10:38 70 °F 35.4 °F 23.57 in SW 2.2 mph -999 mph 28% 0.00 in
10:53 70.5 °F 36.7 °F 23.57 in WNW 3.2 mph -999 mph 29% 0.00 in
11:08 70.7 °F 36 °F 23.57 in NNE 3.7 mph -999 mph 28% 0.00 in
11:23 71.8 °F 36 °F 23.57 in NW 3.7 mph -999 mph 27% 0.00 in
11:38 72.7 °F 37.7 °F 23.57 in NW 4.2 mph -999 mph 28% 0.00 in
11:54 73.2 °F 37.2 °F 23.57 in NNW 3.7 mph -999 mph 27% 0.00 in
12:09 75.7 °F 36.4 °F 23.57 in SE 5.8 mph -999 mph 24% 0.00 in
12:24 75.7 °F 37.4 °F 23.57 in WSW 4.2 mph -999 mph 25% 0.00 in
12:40 76.3 °F 37.9 °F 23.57 in South 2.2 mph -999 mph 25% 0.00 in
12:55 77 °F 38.5 °F 23.57 in Calm   -999 mph 25% 0.00 in
13:10 78.4 °F 38.6 °F 23.57 in ESE 2.7 mph -999 mph 24% 0.00 in
13:25 78.1 °F 39.4 °F 23.57 in NNW 6.8 mph -999 mph 25% 0.00 in
13:41 78.1 °F 39.4 °F 23.56 in NE 3.2 mph -999 mph 25% 0.00 in
13:56 77.2 °F 36.5 °F 23.56 in South 2.7 mph -999 mph 23% 0.00 in
14:12 76.6 °F 36 °F 23.56 in South 2.2 mph -999 mph 23% 0.00 in
14:27 76.6 °F 37.1 °F 23.56 in SSE 2.7 mph -999 mph 24% 0.00 in
14:42 76.5 °F 38.1 °F 23.55 in NNW 2.2 mph -999 mph 25% 0.00 in
14:58 74.3 °F 38.2 °F 23.55 in South 5.3 mph -999 mph 27% 0.00 in
15:13 76.6 °F 40.1 °F 23.55 in SW 2.7 mph -999 mph 27% 0.00 in
15:28 75.2 °F 40.8 °F 23.55 in West 5.3 mph -999 mph 29% 0.00 in
15:44 75 °F 42.3 °F 23.55 in South 1.1 mph -999 mph 31% 0.00 in
15:59 75 °F 42.3 °F 23.55 in North 1.1 mph -999 mph 31% 0.00 in
16:14 74.8 °F 41.3 °F 23.54 in West 5.3 mph -999 mph 30% 0.00 in
16:29 74.1 °F 42.4 °F 23.54 in South 3.2 mph -999 mph 32% 0.00 in
16:44 76.6 °F 42.9 °F 23.54 in NNE 3.2 mph -999 mph 30% 0.00 in
17:00 75 °F 42.3 °F 23.54 in West 4.2 mph -999 mph 31% 0.00 in
17:15 74.3 °F 41.7 °F 23.54 in NNW 6.3 mph -999 mph 31% 0.00 in
17:30 72.7 °F 39.5 °F 23.54 in NNW 4.2 mph -999 mph 30% 0.00 in
17:45 74.1 °F 41.5 °F 23.54 in SSE 4.2 mph -999 mph 31% 0.00 in
18:00 72.7 °F 39.5 °F 23.53 in North 2.7 mph -999 mph 30% 0.00 in
18:16 73.6 °F 39.4 °F 23.53 in NNE 1.1 mph -999 mph 29% 0.00 in
18:31 71.8 °F 38.7 °F 23.53 in ENE 3.7 mph -999 mph 30% 0.00 in
18:46 71.1 °F 39.7 °F 23.53 in NW 5.3 mph -999 mph 32% 0.00 in
19:01 68.9 °F 40.8 °F 23.53 in Calm   -999 mph 36% 0.00 in
19:17 64.4 °F 43.2 °F 23.53 in NE 1.1 mph -999 mph 46% 0.00 in
19:32 62.6 °F 47.6 °F 23.53 in Calm   -999 mph 58% 0.00 in
19:47 60.8 °F 47.3 °F 23.53 in Calm   -999 mph 61% 0.00 in
20:02 59.7 °F 47.9 °F 23.53 in Calm   -999 mph 65% 0.00 in
20:17 57.7 °F 46.4 °F 23.53 in Calm   -999 mph 66% 0.00 in
20:33 56.7 °F 46.3 °F 23.53 in Calm   -999 mph 68% 0.00 in
20:48 55.8 °F 45.8 °F 23.53 in Calm   -999 mph 69% 0.00 in
21:03 54.9 °F 45.7 °F 23.53 in Calm   -999 mph 71% 0.00 in
21:18 54.3 °F 43.6 °F 23.53 in Calm   -999 mph 67% 0.00 in
21:33 53.4 °F 42.3 °F 23.53 in Calm   -999 mph 66% 0.00 in
21:49 52.5 °F 41.9 °F 23.54 in Calm   -999 mph 67% 0.00 in
22:04 51.8 °F 41.2 °F 23.54 in Calm   -999 mph 67% 0.00 in
22:19 51.1 °F 39.7 °F 23.53 in Calm   -999 mph 65% 0.00 in
22:34 50.5 °F 39.6 °F 23.53 in Calm   -999 mph 66% 0.00 in
22:49 50 °F 40.6 °F 23.53 in Calm   -999 mph 70% 0.00 in
23:05 49.5 °F 41.2 °F 23.52 in Calm   -999 mph 73% 0.00 in
23:20 49.3 °F 41.7 °F 23.52 in Calm   -999 mph 75% 0.00 in
23:36 49.3 °F 42.4 °F 23.52 in Calm   -999 mph 77% 0.00 in
23:51 49.1 °F 40.8 °F 23.52 in Calm   -999 mph 73% 0.00 in
Big Bear CA Weather